createdAt,value
2017-01-17T00:00:50.802Z,27.9
2017-01-17T00:01:49.876Z,27.9
2017-01-17T00:02:50.450Z,27.9
2017-01-17T00:03:50.956Z,27.9
2017-01-17T00:04:51.119Z,27.9
2017-01-17T00:05:49.943Z,27.9
2017-01-17T00:06:49.998Z,27.9
2017-01-17T00:07:51.046Z,27.9
2017-01-17T00:08:50.023Z,27.9
2017-01-17T00:09:51.041Z,27.9
2017-01-17T00:10:51.148Z,27.9
2017-01-17T00:11:50.646Z,27.9
2017-01-17T00:12:51.374Z,27.9
2017-01-17T00:13:51.427Z,27.9
2017-01-17T00:14:50.280Z,27.9
2017-01-17T00:15:51.429Z,27.9
2017-01-17T00:16:50.422Z,27.9
2017-01-17T00:17:51.586Z,27.9
2017-01-17T00:18:50.491Z,27.9
2017-01-17T00:19:50.570Z,27.9
2017-01-17T00:20:50.687Z,27.9
2017-01-17T00:21:52.431Z,27.9
2017-01-17T00:22:50.765Z,27.9
2017-01-17T00:23:51.900Z,27.9
2017-01-17T00:24:51.919Z,27.9
2017-01-17T00:25:50.946Z,27.9
2017-01-17T00:26:52.807Z,27.9
2017-01-17T00:27:50.978Z,27.9
2017-01-17T00:28:52.647Z,27.9
2017-01-17T00:29:51.153Z,27.9
2017-01-17T00:30:52.162Z,27.9
2017-01-17T00:31:51.195Z,27.9
2017-01-17T00:32:51.101Z,27.9
2017-01-17T00:33:51.279Z,27.9
2017-01-17T00:34:52.343Z,27.9
2017-01-17T00:35:51.371Z,27.9
2017-01-17T00:36:51.275Z,27.9
2017-01-17T00:37:51.529Z,27.9
2017-01-17T00:38:52.528Z,27.9
2017-01-17T00:39:51.543Z,27.9
2017-01-17T00:40:52.600Z,27.9
2017-01-17T00:41:52.706Z,27.9
2017-01-17T00:42:51.633Z,27.9
2017-01-17T00:43:52.813Z,27.9
2017-01-17T00:44:51.969Z,27.8
2017-01-17T00:45:51.816Z,27.8
2017-01-17T00:46:52.469Z,27.8
2017-01-17T00:47:52.975Z,27.8
2017-01-17T00:48:52.013Z,27.8
2017-01-17T00:49:51.978Z,27.8
2017-01-17T00:50:53.163Z,27.8
2017-01-17T00:51:53.084Z,27.9
2017-01-17T00:52:53.178Z,27.8
2017-01-17T00:53:53.260Z,27.8
2017-01-17T00:54:52.151Z,27.8
2017-01-17T00:55:52.248Z,27.8
2017-01-17T00:56:52.268Z,27.8
2017-01-17T00:57:52.344Z,27.8
2017-01-17T00:58:53.491Z,27.8
2017-01-17T00:59:52.447Z,27.8
2017-01-17T01:00:52.432Z,27.8
2017-01-17T01:01:52.506Z,27.8
2017-01-17T01:02:52.581Z,27.8
2017-01-17T01:03:53.716Z,27.8
2017-01-17T01:04:54.492Z,27.8
2017-01-17T01:05:53.769Z,27.8
2017-01-17T01:06:52.883Z,27.8
2017-01-17T01:07:54.634Z,27.8
2017-01-17T01:08:52.997Z,27.8
2017-01-17T01:09:53.003Z,27.8
2017-01-17T01:10:53.081Z,27.8
2017-01-17T01:11:53.026Z,27.8
2017-01-17T01:12:53.010Z,27.8
2017-01-17T01:13:54.299Z,27.8
2017-01-17T01:14:53.147Z,27.8
2017-01-17T01:15:53.194Z,27.8
2017-01-17T01:16:54.800Z,27.8
2017-01-17T01:17:54.428Z,27.8
2017-01-17T01:18:53.332Z,27.8
2017-01-17T01:19:54.479Z,27.8
2017-01-17T01:20:53.447Z,27.8
2017-01-17T01:21:54.436Z,27.8
2017-01-17T01:22:53.457Z,27.8
2017-01-17T01:23:53.615Z,27.8
2017-01-17T01:24:54.242Z,27.8
2017-01-17T01:25:53.548Z,27.8
2017-01-17T01:26:53.536Z,27.8
2017-01-17T01:27:53.631Z,27.8
2017-01-17T01:28:53.612Z,27.8
2017-01-17T01:29:53.637Z,27.8
2017-01-17T01:30:55.538Z,27.8
2017-01-17T01:31:53.915Z,27.7
2017-01-17T01:32:53.829Z,27.7
2017-01-17T01:33:53.814Z,27.7
2017-01-17T01:34:53.914Z,27.7
2017-01-17T01:35:55.506Z,27.7
2017-01-17T01:36:54.046Z,27.7
2017-01-17T01:37:55.105Z,27.7
2017-01-17T01:38:54.005Z,27.7
2017-01-17T01:39:55.377Z,27.7
2017-01-17T01:40:55.123Z,27.7
2017-01-17T01:41:54.220Z,27.7
2017-01-17T01:42:55.273Z,27.7
2017-01-17T01:43:55.340Z,27.7
2017-01-17T01:44:54.448Z,27.7
2017-01-17T01:45:55.519Z,27.7
2017-01-17T01:46:55.535Z,27.7
2017-01-17T01:47:57.063Z,27.7
2017-01-17T01:48:55.718Z,27.7
2017-01-17T01:49:54.776Z,27.7
2017-01-17T01:50:56.897Z,27.7
2017-01-17T01:51:55.810Z,27.7
2017-01-17T01:52:54.899Z,27.7
2017-01-17T01:53:55.948Z,27.7
2017-01-17T01:54:56.098Z,27.7
2017-01-17T01:55:55.012Z,27.7
2017-01-17T01:56:56.202Z,27.7
2017-01-17T01:57:55.058Z,27.7
2017-01-17T01:58:56.227Z,27.7
2017-01-17T01:59:56.328Z,27.7
2017-01-17T02:00:56.442Z,27.7
2017-01-17T02:01:56.426Z,27.7
2017-01-17T02:02:55.488Z,27.7
2017-01-17T02:03:55.493Z,27.7
2017-01-17T02:04:56.592Z,27.7
2017-01-17T02:05:56.680Z,27.7
2017-01-17T02:06:55.632Z,27.7
2017-01-17T02:07:55.623Z,27.7
2017-01-17T02:08:55.934Z,27.7
2017-01-17T02:09:56.759Z,27.7
2017-01-17T02:10:55.900Z,27.7
2017-01-17T02:11:55.802Z,27.7
2017-01-17T02:12:56.930Z,27.7
2017-01-17T02:13:55.931Z,27.7
2017-01-17T02:14:56.985Z,27.7
2017-01-17T02:15:56.943Z,27.7
2017-01-17T02:16:57.121Z,27.7
2017-01-17T02:17:57.127Z,27.7
2017-01-17T02:18:57.106Z,27.7
2017-01-17T02:19:57.111Z,27.7
2017-01-17T02:20:56.254Z,27.7
2017-01-17T02:21:57.189Z,27.7
2017-01-17T02:22:57.311Z,27.7
2017-01-17T02:23:56.182Z,27.7
2017-01-17T02:24:56.183Z,27.7
2017-01-17T02:25:56.370Z,27.7
2017-01-17T02:26:57.501Z,27.7
2017-01-17T02:27:57.590Z,27.7
2017-01-17T02:28:56.448Z,27.7
2017-01-17T02:29:56.554Z,27.7
2017-01-17T02:30:56.535Z,27.6
2017-01-17T02:31:57.658Z,27.7
2017-01-17T02:32:57.710Z,27.7
2017-01-17T02:33:56.771Z,27.7
2017-01-17T02:34:56.840Z,27.7
2017-01-17T02:35:57.776Z,27.6
2017-01-17T02:36:56.727Z,27.6
2017-01-17T02:37:57.068Z,27.6
2017-01-17T02:38:57.911Z,27.7
2017-01-17T02:39:57.033Z,27.7
2017-01-17T02:40:58.036Z,27.7
2017-01-17T02:41:58.123Z,27.7
2017-01-17T02:42:57.718Z,27.6
2017-01-17T02:43:58.095Z,27.6
2017-01-17T02:44:57.163Z,27.6
2017-01-17T02:45:57.783Z,27.6
2017-01-17T02:46:58.317Z,27.6
2017-01-17T02:47:58.341Z,27.6
2017-01-17T02:48:57.301Z,27.6
2017-01-17T02:49:57.329Z,27.6
2017-01-17T02:50:58.574Z,27.6
2017-01-17T02:51:58.887Z,27.6
2017-01-17T02:53:04.634Z,27.6
2017-01-17T02:53:57.623Z,27.6
2017-01-17T02:54:57.597Z,27.6
2017-01-17T02:55:57.811Z,27.6
2017-01-17T02:56:58.826Z,27.6
2017-01-17T02:57:58.817Z,27.6
2017-01-17T02:58:58.858Z,27.6
2017-01-17T02:59:58.905Z,27.6
2017-01-17T03:00:57.859Z,27.6
2017-01-17T03:01:59.021Z,27.6
2017-01-17T03:02:59.069Z,27.6
2017-01-17T03:03:58.252Z,27.6
2017-01-17T03:04:58.895Z,27.6
2017-01-17T03:05:59.363Z,27.6
2017-01-17T03:06:59.059Z,27.6
2017-01-17T03:07:59.523Z,27.6
2017-01-17T03:08:58.568Z,27.6
2017-01-17T03:10:00.129Z,27.6
2017-01-17T03:10:58.510Z,27.6
2017-01-17T03:11:58.590Z,27.6
2017-01-17T03:12:59.587Z,27.6
2017-01-17T03:13:59.593Z,27.6
2017-01-17T03:14:59.677Z,27.6
2017-01-17T03:15:59.411Z,27.6
2017-01-17T03:17:00.003Z,27.6
2017-01-17T03:17:58.824Z,27.6
2017-01-17T03:18:59.484Z,27.6
2017-01-17T03:19:59.018Z,27.6
2017-01-17T03:20:59.047Z,27.6
2017-01-17T03:22:00.130Z,27.6
2017-01-17T03:22:59.200Z,27.6
2017-01-17T03:24:00.150Z,27.6
2017-01-17T03:25:00.146Z,27.6
2017-01-17T03:25:59.377Z,27.6
2017-01-17T03:26:59.280Z,27.6
2017-01-17T03:27:59.394Z,27.6
2017-01-17T03:28:59.370Z,27.6
2017-01-17T03:30:00.381Z,27.6
2017-01-17T03:30:59.375Z,27.6
2017-01-17T03:32:01.540Z,27.6
2017-01-17T03:33:00.643Z,27.5
2017-01-17T03:34:01.735Z,27.5
2017-01-17T03:34:59.565Z,27.6
2017-01-17T03:35:59.639Z,27.5
2017-01-17T03:37:00.822Z,27.5
2017-01-17T03:38:00.866Z,27.5
2017-01-17T03:39:01.714Z,27.5
2017-01-17T03:40:00.004Z,27.6
2017-01-17T03:40:59.932Z,27.6
2017-01-17T03:41:59.998Z,27.6
2017-01-17T03:43:01.145Z,27.6
2017-01-17T03:43:59.975Z,27.6
2017-01-17T03:45:01.076Z,27.6
2017-01-17T03:46:01.200Z,27.5
2017-01-17T03:47:02.613Z,27.6
2017-01-17T03:48:00.137Z,27.6
2017-01-17T03:49:00.331Z,27.6
2017-01-17T03:50:00.238Z,27.6
2017-01-17T03:51:01.478Z,27.6
2017-01-17T03:52:01.505Z,27.5
2017-01-17T03:53:01.627Z,27.5
2017-01-17T03:54:01.589Z,27.5
2017-01-17T03:55:01.556Z,27.5
2017-01-17T03:56:01.664Z,27.5
2017-01-17T03:57:01.650Z,27.5
2017-01-17T03:58:00.902Z,27.5
2017-01-17T03:59:01.894Z,27.5
2017-01-17T04:00:01.981Z,27.5
2017-01-17T04:01:00.938Z,27.5
2017-01-17T04:02:01.967Z,27.5
2017-01-17T04:03:02.143Z,27.5
2017-01-17T04:04:01.001Z,27.5
2017-01-17T04:05:01.241Z,27.5
2017-01-17T04:06:01.269Z,27.5
2017-01-17T04:07:01.150Z,27.5
2017-01-17T04:08:02.346Z,27.5
2017-01-17T04:09:01.426Z,27.5
2017-01-17T04:10:03.122Z,27.5
2017-01-17T04:11:02.543Z,27.5
2017-01-17T04:12:02.509Z,27.5
2017-01-17T04:13:01.686Z,27.5
2017-01-17T04:14:02.738Z,27.5
2017-01-17T04:15:02.808Z,27.5
2017-01-17T04:16:02.941Z,27.5
2017-01-17T04:17:02.857Z,27.5
2017-01-17T04:18:04.229Z,27.5
2017-01-17T04:19:01.817Z,27.5
2017-01-17T04:20:02.910Z,27.5
2017-01-17T04:21:03.048Z,27.5
2017-01-17T04:22:03.066Z,27.5
2017-01-17T04:23:02.009Z,27.5
2017-01-17T04:24:03.072Z,27.5
2017-01-17T04:25:02.106Z,27.5
2017-01-17T04:26:02.169Z,27.5
2017-01-17T04:27:03.168Z,27.5
2017-01-17T04:28:03.344Z,27.5
2017-01-17T04:29:03.074Z,27.5
2017-01-17T04:30:03.479Z,27.5
2017-01-17T04:31:03.478Z,27.5
2017-01-17T04:32:03.471Z,27.5
2017-01-17T04:33:02.489Z,27.5
2017-01-17T04:34:03.656Z,27.5
2017-01-17T04:35:02.603Z,27.5
2017-01-17T04:36:02.682Z,27.5
2017-01-17T04:37:02.701Z,27.5
2017-01-17T04:38:02.820Z,27.5
2017-01-17T04:39:03.780Z,27.5
2017-01-17T04:40:02.788Z,27.5
2017-01-17T04:41:02.827Z,27.5
2017-01-17T04:42:02.941Z,27.5
2017-01-17T04:43:03.927Z,27.5
2017-01-17T04:44:02.905Z,27.5
2017-01-17T04:45:04.081Z,27.5
2017-01-17T04:46:04.092Z,27.4
2017-01-17T04:47:02.988Z,27.4
2017-01-17T04:48:03.095Z,27.4
2017-01-17T04:49:03.082Z,27.4
2017-01-17T04:50:04.312Z,27.4
2017-01-17T04:51:04.841Z,27.4
2017-01-17T04:52:04.357Z,27.4
2017-01-17T04:53:04.362Z,27.4
2017-01-17T04:54:04.080Z,27.4
2017-01-17T04:55:04.574Z,27.4
2017-01-17T04:56:04.751Z,27.4
2017-01-17T04:57:04.789Z,27.4
2017-01-17T04:58:03.579Z,27.4
2017-01-17T04:59:03.667Z,27.4
2017-01-17T05:00:04.826Z,27.5
2017-01-17T05:01:04.916Z,27.5
2017-01-17T05:02:05.010Z,27.4
2017-01-17T05:03:04.476Z,27.4
2017-01-17T05:04:03.973Z,27.4
2017-01-17T05:05:05.993Z,27.4
2017-01-17T05:06:04.133Z,27.4
2017-01-17T05:07:04.216Z,27.4
2017-01-17T05:08:05.484Z,27.4
2017-01-17T05:09:04.338Z,27.4
2017-01-17T05:10:04.440Z,27.4
2017-01-17T05:11:04.573Z,27.4
2017-01-17T05:12:05.612Z,27.4
2017-01-17T05:13:05.707Z,27.4
2017-01-17T05:14:05.114Z,27.4
2017-01-17T05:15:04.709Z,27.4
2017-01-17T05:16:05.679Z,27.4
2017-01-17T05:17:05.719Z,27.4
2017-01-17T05:18:06.530Z,27.4
2017-01-17T05:19:04.878Z,27.4
2017-01-17T05:20:04.860Z,27.4
2017-01-17T05:21:05.047Z,27.4
2017-01-17T05:22:05.129Z,27.4
2017-01-17T05:23:05.269Z,27.4
2017-01-17T05:24:05.187Z,27.4
2017-01-17T05:25:05.350Z,27.4
2017-01-17T05:26:05.241Z,27.4
2017-01-17T05:27:05.306Z,27.4
2017-01-17T05:28:06.444Z,27.4
2017-01-17T05:29:06.445Z,27.4
2017-01-17T05:30:06.631Z,27.4
2017-01-17T05:31:05.485Z,27.4
2017-01-17T05:32:06.270Z,27.4
2017-01-17T05:33:05.618Z,27.4
2017-01-17T05:34:06.753Z,27.4
2017-01-17T05:35:06.017Z,27.4
2017-01-17T05:36:05.777Z,27.4
2017-01-17T05:37:05.725Z,27.4
2017-01-17T05:38:06.851Z,27.4
2017-01-17T05:39:05.880Z,27.4
2017-01-17T05:40:05.896Z,27.4
2017-01-17T05:41:06.974Z,27.4
2017-01-17T05:42:05.978Z,27.4
2017-01-17T05:43:07.037Z,27.4
2017-01-17T05:44:07.050Z,27.5
2017-01-17T05:45:07.180Z,27.7
2017-01-17T05:46:07.875Z,27.8
2017-01-17T05:47:06.231Z,27.8
2017-01-17T05:48:07.298Z,27.9
2017-01-17T05:49:07.247Z,27.9
2017-01-17T05:50:06.283Z,27.9
2017-01-17T05:51:06.299Z,28
2017-01-17T05:52:08.196Z,28
2017-01-17T05:53:08.064Z,28.1
2017-01-17T05:54:06.427Z,28.1
2017-01-17T05:55:07.085Z,28.2
2017-01-17T05:56:07.651Z,28.2
2017-01-17T05:57:07.694Z,28.3
2017-01-17T05:58:07.726Z,28.3
2017-01-17T05:59:07.896Z,28.3
2017-01-17T06:00:06.938Z,28.4
2017-01-17T06:01:07.978Z,28.4
2017-01-17T06:02:07.934Z,28.5
2017-01-17T06:03:07.011Z,28.5
2017-01-17T06:04:07.070Z,28.6
2017-01-17T06:05:08.265Z,28.6
2017-01-17T06:06:07.200Z,28.6
2017-01-17T06:07:08.325Z,28.7
2017-01-17T06:08:09.166Z,28.7
2017-01-17T06:09:08.422Z,28.8
2017-01-17T06:10:07.322Z,28.8
2017-01-17T06:11:08.540Z,28.8
2017-01-17T06:12:07.520Z,28.9
2017-01-17T06:13:07.519Z,28.9
2017-01-17T06:14:07.562Z,28.9
2017-01-17T06:15:07.610Z,28.9
2017-01-17T06:16:08.722Z,29
2017-01-17T06:17:07.710Z,29.1
2017-01-17T06:18:08.788Z,29.1
2017-01-17T06:19:08.842Z,29.1
2017-01-17T06:20:07.948Z,29.2
2017-01-17T06:21:08.611Z,29.2
2017-01-17T06:22:07.912Z,29.2
2017-01-17T06:23:07.993Z,29.3
2017-01-17T06:24:08.661Z,29.3
2017-01-17T06:25:09.258Z,29.3
2017-01-17T06:26:08.182Z,29.3
2017-01-17T06:27:08.427Z,29.3
2017-01-17T06:28:10.059Z,29.3
2017-01-17T06:29:08.271Z,29.3
2017-01-17T06:30:09.390Z,29.3
2017-01-17T06:31:09.430Z,29.3
2017-01-17T06:32:09.634Z,29.4
2017-01-17T06:33:08.585Z,29.4
2017-01-17T06:34:08.689Z,29.6
2017-01-17T06:35:08.714Z,29.6
2017-01-17T06:36:09.867Z,29.6
2017-01-17T06:37:08.841Z,29.6
2017-01-17T06:38:08.851Z,29.7
2017-01-17T06:39:09.834Z,29.7
2017-01-17T06:40:09.858Z,29.7
2017-01-17T06:41:10.511Z,29.7
2017-01-17T06:42:10.135Z,29.7
2017-01-17T06:43:09.643Z,29.7
2017-01-17T06:44:10.689Z,29.8
2017-01-17T06:45:10.127Z,29.8
2017-01-17T06:46:10.234Z,29.8
2017-01-17T06:47:09.261Z,29.8
2017-01-17T06:48:09.831Z,29.8
2017-01-17T06:49:09.323Z,29.8
2017-01-17T06:50:10.501Z,29.8
2017-01-17T06:51:10.603Z,29.8
2017-01-17T06:52:10.652Z,29.8
2017-01-17T06:53:09.611Z,29.8
2017-01-17T06:54:09.462Z,29.8
2017-01-17T06:55:10.592Z,29.8
2017-01-17T06:56:11.743Z,29.9
2017-01-17T06:57:11.803Z,29.9
2017-01-17T06:58:09.610Z,29.9
2017-01-17T06:59:10.771Z,29.9
2017-01-17T07:00:10.387Z,29.9
2017-01-17T07:01:10.437Z,30
2017-01-17T07:02:10.936Z,30.1
2017-01-17T07:03:11.024Z,30.1
2017-01-17T07:04:10.975Z,30.1
2017-01-17T07:05:09.931Z,30.1
2017-01-17T07:06:10.039Z,30.1
2017-01-17T07:07:10.000Z,30.1
2017-01-17T07:08:10.126Z,30.2
2017-01-17T07:09:11.159Z,30.2
2017-01-17T07:10:11.217Z,30.2
2017-01-17T07:11:10.175Z,30.2
2017-01-17T07:12:11.295Z,30.2
2017-01-17T07:13:12.034Z,30.2
2017-01-17T07:14:11.419Z,30.2
2017-01-17T07:15:12.199Z,30.2
2017-01-17T07:16:10.444Z,30.2
2017-01-17T07:17:11.828Z,30.3
2017-01-17T07:18:11.542Z,30.3
2017-01-17T07:19:11.683Z,30.3
2017-01-17T07:20:11.699Z,30.3
2017-01-17T07:21:11.439Z,30.3
2017-01-17T07:22:10.696Z,30.3
2017-01-17T07:23:12.546Z,30.3
2017-01-17T07:24:10.771Z,30.3
2017-01-17T07:25:11.976Z,30.3
2017-01-17T07:26:12.138Z,30.3
2017-01-17T07:27:12.071Z,30.3
2017-01-17T07:28:11.184Z,30.3
2017-01-17T07:29:13.228Z,30.3
2017-01-17T07:30:12.313Z,30.3
2017-01-17T07:31:12.380Z,30.3
2017-01-17T07:32:11.278Z,30.3
2017-01-17T07:33:12.475Z,30.3
2017-01-17T07:34:12.444Z,30.3
2017-01-17T07:35:11.531Z,30.4
2017-01-17T07:36:11.563Z,30.4
2017-01-17T07:37:11.486Z,30.4
2017-01-17T07:38:11.769Z,30.4
2017-01-17T07:39:11.524Z,30.4
2017-01-17T07:40:12.624Z,30.4
2017-01-17T07:41:12.675Z,30.4
2017-01-17T07:42:12.840Z,30.4
2017-01-17T07:43:13.573Z,30.3
2017-01-17T07:44:13.690Z,30.3
2017-01-17T07:45:13.050Z,30.3
2017-01-17T07:46:11.954Z,30.4
2017-01-17T07:47:13.661Z,30.3
2017-01-17T07:48:13.107Z,30.4
2017-01-17T07:49:13.033Z,30.4
2017-01-17T07:50:13.035Z,30.4
2017-01-17T07:51:12.032Z,30.4
2017-01-17T07:52:12.228Z,30.4
2017-01-17T07:53:12.928Z,30.4
2017-01-17T07:54:13.407Z,30.4
2017-01-17T07:55:13.535Z,30.4
2017-01-17T07:56:13.566Z,30.4
2017-01-17T07:57:13.505Z,30.3
2017-01-17T07:58:12.604Z,30.4
2017-01-17T07:59:12.508Z,30.4
2017-01-17T08:00:13.779Z,30.3
2017-01-17T08:01:12.530Z,30.3
2017-01-17T08:02:13.797Z,30.3
2017-01-17T08:03:14.468Z,30.3
2017-01-17T08:04:13.879Z,30.3
2017-01-17T08:05:12.872Z,30.3
2017-01-17T08:06:13.827Z,30.3
2017-01-17T08:07:13.857Z,30.2
2017-01-17T08:08:14.281Z,30.2
2017-01-17T08:09:13.014Z,30.2
2017-01-17T08:10:14.063Z,30.2
2017-01-17T08:11:14.353Z,30.2
2017-01-17T08:12:40.555Z,30.2
2017-01-17T08:13:15.019Z,30.2
2017-01-17T08:14:16.199Z,30.2
2017-01-17T08:15:15.104Z,30.2
2017-01-17T08:16:44.278Z,30.2
2017-01-17T08:17:20.665Z,30.2
2017-01-17T08:18:19.306Z,30.2
2017-01-17T08:19:41.844Z,30.3
2017-01-17T08:20:20.510Z,30.3
2017-01-17T08:21:20.572Z,30.3
2017-01-17T08:22:20.726Z,30.3
2017-01-17T08:23:20.281Z,30.3
2017-01-17T08:24:19.742Z,30.3
2017-01-17T08:25:22.081Z,30.2
2017-01-17T08:26:21.420Z,30.2
2017-01-17T08:27:19.782Z,30.2
2017-01-17T08:28:20.683Z,30.2
2017-01-17T08:29:21.107Z,30.2
2017-01-17T08:30:19.922Z,30.2
2017-01-17T08:31:19.988Z,30.2
2017-01-17T08:32:21.040Z,30.2
2017-01-17T08:33:21.147Z,30.2
2017-01-17T08:34:21.468Z,30.3
2017-01-17T08:35:21.709Z,30.3
2017-01-17T08:36:21.140Z,30.3
2017-01-17T08:37:20.287Z,30.3
2017-01-17T08:38:25.482Z,30.3
2017-01-17T08:39:27.083Z,30.3
2017-01-17T08:40:21.111Z,30.3
2017-01-17T08:41:21.521Z,30.4
2017-01-17T08:42:21.017Z,30.4
2017-01-17T08:43:21.642Z,30.4
2017-01-17T08:44:20.857Z,30.4
2017-01-17T08:45:20.778Z,30.4
2017-01-17T08:46:22.106Z,30.4
2017-01-17T08:47:20.866Z,30.4
2017-01-17T08:48:20.863Z,30.4
2017-01-17T08:49:21.519Z,30.3
2017-01-17T08:50:22.134Z,30.3
2017-01-17T08:51:23.252Z,30.3
2017-01-17T08:52:24.000Z,30.3
2017-01-17T08:53:24.273Z,30.2
2017-01-17T08:54:26.164Z,30.2
2017-01-17T08:55:21.735Z,30.2
2017-01-17T08:56:22.526Z,30.3
2017-01-17T08:57:21.836Z,30.3
2017-01-17T08:58:21.373Z,30.3
2017-01-17T08:59:22.099Z,30.3
2017-01-17T09:00:23.363Z,30.3
2017-01-17T09:01:22.633Z,30.3
2017-01-17T09:02:21.637Z,30.3
2017-01-17T09:03:21.703Z,30.3
2017-01-17T09:04:22.697Z,30.4
2017-01-17T09:05:22.920Z,30.4
2017-01-17T09:06:21.881Z,30.4
2017-01-17T09:07:22.847Z,30.4
2017-01-17T09:08:23.008Z,30.4
2017-01-17T09:09:22.914Z,30.3
2017-01-17T09:10:21.930Z,30.3
2017-01-17T09:11:23.284Z,30.3
2017-01-17T09:12:23.298Z,30.3
2017-01-17T09:13:23.790Z,30.3
2017-01-17T09:14:22.397Z,30.2
2017-01-17T09:15:24.469Z,30.2
2017-01-17T09:16:22.399Z,30.2
2017-01-17T09:17:23.249Z,30.2
2017-01-17T09:18:24.225Z,30.2
2017-01-17T09:19:22.780Z,30.2
2017-01-17T09:20:23.786Z,30.3
2017-01-17T09:21:22.713Z,30.3
2017-01-17T09:22:22.783Z,30.3
2017-01-17T09:23:22.763Z,30.3
2017-01-17T09:24:23.567Z,30.2
2017-01-17T09:25:23.065Z,30.2
2017-01-17T09:26:23.044Z,30.2
2017-01-17T09:27:29.430Z,30.2
2017-01-17T09:28:24.832Z,30.2
2017-01-17T09:29:23.694Z,30.2
2017-01-17T09:30:25.170Z,30.2
2017-01-17T09:31:25.102Z,30.2
2017-01-17T09:32:24.407Z,30.2
2017-01-17T09:33:24.536Z,30.2
2017-01-17T09:34:23.470Z,30.2
2017-01-17T09:35:24.515Z,30.2
2017-01-17T09:36:24.629Z,30.2
2017-01-17T09:37:23.643Z,30.2
2017-01-17T09:38:25.416Z,30.2
2017-01-17T09:39:25.368Z,30.2
2017-01-17T09:40:25.585Z,30.2
2017-01-17T09:41:24.975Z,30.2
2017-01-17T09:42:24.728Z,30.2
2017-01-17T09:43:25.973Z,30.3
2017-01-17T09:44:25.640Z,30.3
2017-01-17T09:45:25.097Z,30.3
2017-01-17T09:46:24.334Z,30.3
2017-01-17T09:47:25.115Z,30.3
2017-01-17T09:48:25.322Z,30.4
2017-01-17T09:49:25.977Z,30.3
2017-01-17T09:50:25.377Z,30.3
2017-01-17T09:51:25.652Z,30.4
2017-01-17T09:52:25.187Z,30.4
2017-01-17T09:53:27.981Z,30.4
2017-01-17T09:54:24.556Z,30.4
2017-01-17T09:55:24.710Z,30.4
2017-01-17T09:56:24.625Z,30.4
2017-01-17T09:57:26.253Z,30.4
2017-01-17T09:58:27.182Z,30.5
2017-01-17T09:59:25.836Z,30.5
2017-01-17T10:00:26.150Z,30.5
2017-01-17T10:01:28.213Z,30.5
2017-01-17T10:02:26.565Z,30.5
2017-01-17T10:03:25.036Z,30.5
2017-01-17T10:04:26.525Z,30.4
2017-01-17T10:05:27.639Z,30.4
2017-01-17T10:06:25.114Z,30.4
2017-01-17T10:07:27.432Z,30.4
2017-01-17T10:08:27.515Z,30.4
2017-01-17T10:09:25.960Z,30.4
2017-01-17T10:10:26.389Z,30.3
2017-01-17T10:11:26.349Z,30.3
2017-01-17T10:12:26.666Z,30.3
2017-01-17T10:13:26.697Z,30.2
2017-01-17T10:14:26.586Z,30.2
2017-01-17T10:15:25.593Z,30.2
2017-01-17T10:16:27.382Z,30.2
2017-01-17T10:17:28.004Z,30.2
2017-01-17T10:18:26.805Z,30.2
2017-01-17T10:19:26.832Z,30.2
2017-01-17T10:20:26.188Z,30.2
2017-01-17T10:21:27.432Z,30.2
2017-01-17T10:22:26.878Z,30.2
2017-01-17T10:23:27.393Z,30.2
2017-01-17T10:24:27.359Z,30.2
2017-01-17T10:25:26.843Z,30.2
2017-01-17T10:26:27.560Z,30.1
2017-01-17T10:27:28.188Z,30.1
2017-01-17T10:28:26.065Z,30.1
2017-01-17T10:29:26.112Z,30.1
2017-01-17T10:30:25.940Z,30.1
2017-01-17T10:31:27.121Z,30.1
2017-01-17T10:32:27.301Z,30
2017-01-17T10:33:26.185Z,30
2017-01-17T10:34:26.402Z,30
2017-01-17T10:35:26.883Z,30
2017-01-17T10:36:27.494Z,29.9
2017-01-17T10:37:28.111Z,29.9
2017-01-17T10:38:27.504Z,29.9
2017-01-17T10:39:27.537Z,29.9
2017-01-17T10:40:28.001Z,30
2017-01-17T10:41:26.631Z,29.9
2017-01-17T10:42:27.745Z,29.9
2017-01-17T10:43:28.458Z,30
2017-01-17T10:44:26.858Z,29.9
2017-01-17T10:45:27.900Z,29.9
2017-01-17T10:46:27.840Z,29.9
2017-01-17T10:47:28.017Z,29.9
2017-01-17T10:48:26.805Z,29.8
2017-01-17T10:49:26.821Z,29.8
2017-01-17T10:50:26.878Z,29.7
2017-01-17T10:51:26.994Z,29.6
2017-01-17T10:52:28.767Z,29.6
2017-01-17T10:53:27.104Z,29.7
2017-01-17T10:54:27.080Z,29.8
2017-01-17T10:55:29.495Z,29.9
2017-01-17T10:56:28.219Z,30
2017-01-17T10:57:28.339Z,30.1
2017-01-17T10:58:28.442Z,30.1
2017-01-17T10:59:29.114Z,30.2
2017-01-17T11:00:29.326Z,30.3
2017-01-17T11:01:28.428Z,30.4
2017-01-17T11:02:29.685Z,30.5
2017-01-17T11:03:28.777Z,30.6
2017-01-17T11:04:30.256Z,30.6
2017-01-17T11:05:27.732Z,30.7
2017-01-17T11:06:28.935Z,30.7
2017-01-17T11:07:28.000Z,30.8
2017-01-17T11:08:28.979Z,30.8
2017-01-17T11:09:29.064Z,30.9
2017-01-17T11:10:29.773Z,30.9
2017-01-17T11:11:28.086Z,31
2017-01-17T11:12:33.775Z,31
2017-01-17T11:13:30.329Z,31
2017-01-17T11:14:29.851Z,31.1
2017-01-17T11:15:28.270Z,31.2
2017-01-17T11:16:28.498Z,31.2
2017-01-17T11:17:33.412Z,31.2
2017-01-17T11:18:28.573Z,31.2
2017-01-17T11:19:29.737Z,31.3
2017-01-17T11:20:28.516Z,31.3
2017-01-17T11:21:32.656Z,31.3
2017-01-17T11:22:46.946Z,31.3
2017-01-17T11:23:49.253Z,31.3
2017-01-17T11:24:49.863Z,31.3
2017-01-17T11:25:47.052Z,31.3
2017-01-17T11:26:47.971Z,30.7
2017-01-17T11:28:27.549Z,29.8
2017-01-17T11:29:26.139Z,29.5
2017-01-17T11:30:26.251Z,29.3
2017-01-17T11:31:25.396Z,29.1
2017-01-17T11:32:25.430Z,28.9
2017-01-17T11:33:25.570Z,28.6
2017-01-17T11:34:28.359Z,28.3
2017-01-17T11:35:26.626Z,28
2017-01-17T11:36:26.163Z,27.7
2017-01-17T11:37:27.203Z,27.4
2017-01-17T11:38:27.920Z,27.2
2017-01-17T11:39:29.192Z,27
2017-01-17T11:40:28.471Z,26.8
2017-01-17T11:41:27.551Z,26.9
2017-01-17T11:42:27.538Z,27
2017-01-17T11:43:27.682Z,27.1
2017-01-17T11:44:27.526Z,27.2
2017-01-17T11:45:26.035Z,27.2
2017-01-17T11:46:29.106Z,27.1
2017-01-17T11:47:27.195Z,27.1
2017-01-17T11:48:26.898Z,27.1
2017-01-17T11:49:27.256Z,27.1
2017-01-17T11:50:27.997Z,27
2017-01-17T11:51:28.093Z,27
2017-01-17T11:52:26.352Z,27
2017-01-17T11:53:28.055Z,26.9
2017-01-17T11:54:26.534Z,26.9
2017-01-17T11:55:28.254Z,26.9
2017-01-17T11:56:27.853Z,26.9
2017-01-17T11:57:28.314Z,26.9
2017-01-17T11:58:28.372Z,27
2017-01-17T11:59:27.867Z,27
2017-01-17T12:00:29.507Z,27
2017-01-17T12:01:27.709Z,27
2017-01-17T12:02:26.955Z,27
2017-01-17T12:03:27.572Z,27
2017-01-17T12:04:28.000Z,27.1
2017-01-17T12:05:34.417Z,27.1
2017-01-17T12:06:30.153Z,27.1
2017-01-17T12:07:28.943Z,27.1
2017-01-17T12:08:31.255Z,27.2
2017-01-17T12:09:27.282Z,27.2
2017-01-17T12:10:28.304Z,27.2
2017-01-17T12:11:27.250Z,27.2
2017-01-17T12:12:28.448Z,27.2
2017-01-17T12:13:28.480Z,27.2
2017-01-17T12:14:27.447Z,27.2
2017-01-17T12:15:27.577Z,27.2
2017-01-17T12:16:28.843Z,27.2
2017-01-17T12:17:27.841Z,27.2
2017-01-17T12:18:28.837Z,27.2
2017-01-17T12:19:28.302Z,27.2
2017-01-17T12:20:27.893Z,27.1
2017-01-17T12:21:27.841Z,27.1
2017-01-17T12:22:28.991Z,27.1
2017-01-17T12:23:29.774Z,27.1
2017-01-17T12:24:30.563Z,27.1
2017-01-17T12:25:28.638Z,27.1
2017-01-17T12:26:28.912Z,27.1
2017-01-17T12:27:30.667Z,27.1
2017-01-17T12:28:29.057Z,27.1
2017-01-17T12:29:28.307Z,27.1
2017-01-17T12:30:30.071Z,27.1
2017-01-17T12:31:28.299Z,27.2
2017-01-17T12:32:30.051Z,27.2
2017-01-17T12:33:30.979Z,27.2
2017-01-17T12:34:29.517Z,27.3
2017-01-17T12:35:30.981Z,27.3
2017-01-17T12:36:30.667Z,27.3
2017-01-17T12:37:29.370Z,27.3
2017-01-17T12:38:30.456Z,27.3
2017-01-17T12:39:30.583Z,27.3
2017-01-17T12:40:28.732Z,27.4
2017-01-17T12:41:28.795Z,27.4
2017-01-17T12:42:31.378Z,27.5
2017-01-17T12:43:30.562Z,27.5
2017-01-17T12:44:29.036Z,27.6
2017-01-17T12:45:30.323Z,27.6
2017-01-17T12:46:30.592Z,27.7
2017-01-17T12:47:34.021Z,27.7
2017-01-17T12:48:31.515Z,27.8
2017-01-17T12:49:30.740Z,27.8
2017-01-17T12:50:31.123Z,27.9
2017-01-17T12:51:29.894Z,28
2017-01-17T12:52:30.386Z,28
2017-01-17T12:53:29.435Z,28.1
2017-01-17T12:54:29.707Z,28.1
2017-01-17T12:55:31.500Z,28.1
2017-01-17T12:56:30.686Z,28.2
2017-01-17T12:57:30.756Z,28.2
2017-01-17T12:58:30.455Z,28.2
2017-01-17T12:59:30.969Z,28.3
2017-01-17T13:00:32.029Z,28.3
2017-01-17T13:01:30.696Z,28.4
2017-01-17T13:02:31.926Z,28.4
2017-01-17T13:03:31.068Z,28.4
2017-01-17T13:04:30.797Z,28.5
2017-01-17T13:05:30.786Z,28.5
2017-01-17T13:06:32.138Z,28.6
2017-01-17T13:07:31.355Z,28.6
2017-01-17T13:08:31.418Z,28.6
2017-01-17T13:09:33.287Z,28.7
2017-01-17T13:10:31.440Z,28.7
2017-01-17T13:11:31.385Z,28.8
2017-01-17T13:12:33.486Z,28.9
2017-01-17T13:13:30.369Z,28.9
2017-01-17T13:14:31.612Z,29
2017-01-17T13:15:30.506Z,29
2017-01-17T13:16:31.195Z,29.1
2017-01-17T13:17:30.614Z,29.1
2017-01-17T13:18:31.704Z,29.2
2017-01-17T13:19:31.652Z,29.2
2017-01-17T13:20:31.836Z,29.2
2017-01-17T13:21:33.196Z,29.3
2017-01-17T13:22:31.779Z,29.3